createdAt,value
2019-03-22T00:00:43.055Z,20.72
2019-03-22T00:05:46.617Z,18.80
2019-03-22T00:10:50.082Z,19.23
2019-03-22T00:15:53.589Z,19.70
2019-03-22T00:20:57.163Z,20.55
2019-03-22T00:26:01.306Z,19.45
2019-03-22T00:31:04.806Z,21.25
2019-03-22T00:36:08.282Z,22.58
2019-03-22T00:41:11.775Z,20.23
2019-03-22T00:46:15.494Z,19.05
2019-03-22T00:51:19.083Z,20.17
2019-03-22T00:56:22.622Z,19.42
2019-03-22T01:01:26.124Z,20.08
2019-03-22T01:06:29.594Z,21.75
2019-03-22T01:11:33.316Z,21.02
2019-03-22T01:16:36.823Z,21.15
2019-03-22T01:21:40.302Z,19.32
2019-03-22T01:26:43.775Z,20.32
2019-03-22T01:31:47.277Z,20.45
2019-03-22T01:36:51.037Z,20.10
2019-03-22T01:41:54.548Z,20.82
2019-03-22T01:46:58.273Z,20.77
2019-03-22T01:52:03.442Z,22.52
2019-03-22T01:57:06.989Z,22.15
2019-03-22T02:02:10.532Z,21.65
2019-03-22T02:07:14.150Z,20.25
2019-03-22T02:12:17.698Z,19.17
2019-03-22T02:17:21.273Z,21.23
2019-03-22T02:22:24.855Z,21.52
2019-03-22T02:27:28.319Z,22.93
2019-03-22T02:32:31.798Z,21.70
2019-03-22T02:37:35.446Z,21.70
2019-03-22T02:42:38.995Z,22.90
2019-03-22T02:47:42.625Z,23.85
2019-03-22T02:52:46.219Z,23.52
2019-03-22T02:57:49.779Z,22.32
2019-03-22T03:02:53.360Z,22.45
2019-03-22T03:07:56.996Z,25.25
2019-03-22T03:13:00.497Z,25.00
2019-03-22T03:18:07.309Z,24.57
2019-03-22T03:23:10.976Z,24.02
2019-03-22T03:28:14.480Z,27.77
2019-03-22T03:33:18.041Z,25.35
2019-03-22T03:38:21.562Z,24.45
2019-03-22T03:43:25.053Z,25.92
2019-03-22T03:48:28.549Z,26.35
2019-03-22T03:53:32.063Z,25.02
2019-03-22T03:58:51.192Z,26.48
2019-03-22T04:03:40.929Z,25.10
2019-03-22T04:08:44.439Z,25.12
2019-03-22T04:13:48.025Z,28.20
2019-03-22T04:18:51.566Z,27.10
2019-03-22T04:23:56.764Z,26.40
2019-03-22T04:29:07.149Z,25.23
2019-03-22T04:34:05.574Z,25.00
2019-03-22T04:39:09.067Z,26.27
2019-03-22T04:44:12.729Z,27.95
2019-03-22T04:49:17.953Z,26.02
2019-03-22T04:54:21.746Z,25.65
2019-03-22T04:59:26.603Z,25.85
2019-03-22T05:04:31.085Z,25.65
2019-03-22T05:09:36.313Z,26.40
2019-03-22T05:14:41.763Z,25.52
2019-03-22T05:19:48.336Z,26.80
2019-03-22T05:24:52.779Z,27.58
2019-03-22T05:29:58.420Z,24.72
2019-03-22T05:35:01.917Z,24.15
2019-03-22T05:40:07.103Z,23.15
2019-03-22T05:45:10.581Z,24.55
2019-03-22T05:50:14.047Z,24.35
2019-03-22T05:55:17.521Z,23.52
2019-03-22T06:00:21.099Z,23.85
2019-03-22T06:05:24.562Z,22.00
2019-03-22T06:10:28.038Z,20.05
2019-03-22T06:15:31.593Z,20.30
2019-03-22T06:20:35.074Z,17.70
2019-03-22T06:25:38.623Z,18.35
2019-03-22T06:30:42.141Z,15.83
2019-03-22T06:35:45.679Z,14.95
2019-03-22T06:40:49.190Z,14.33
2019-03-22T06:45:52.666Z,14.73
2019-03-22T06:50:56.141Z,12.35
2019-03-22T06:56:00.132Z,15.65
2019-03-22T07:01:03.637Z,13.35
2019-03-22T07:06:07.207Z,10.72
2019-03-22T07:11:10.718Z,11.10
2019-03-22T07:16:14.238Z,110.25
2019-03-22T07:21:17.896Z,460.65
2019-03-22T07:26:21.445Z,153.42
2019-03-22T07:31:25.033Z,132.00
2019-03-22T07:36:28.619Z,135.37
2019-03-22T07:41:32.184Z,126.78
2019-03-22T07:46:35.832Z,87.90
2019-03-22T07:51:39.405Z,72.15
2019-03-22T07:56:42.901Z,59.48
2019-03-22T08:01:46.379Z,47.35
2019-03-22T08:06:49.893Z,36.93
2019-03-22T08:11:53.443Z,34.05
2019-03-22T08:16:56.924Z,29.20
2019-03-22T08:22:00.391Z,26.62
2019-03-22T08:27:04.039Z,24.23
2019-03-22T08:32:07.542Z,22.27
2019-03-22T08:37:11.046Z,19.25
2019-03-22T08:42:14.582Z,18.45
2019-03-22T08:47:18.164Z,16.25
2019-03-22T08:52:21.722Z,14.43
2019-03-22T08:57:25.292Z,13.48
2019-03-22T09:02:28.810Z,12.65
2019-03-22T09:07:32.316Z,13.35
2019-03-22T09:12:35.920Z,12.10
2019-03-22T09:17:39.439Z,10.20
2019-03-22T09:22:42.943Z,9.38
2019-03-22T09:27:46.487Z,8.40
2019-03-22T09:32:50.078Z,7.33
2019-03-22T09:37:53.623Z,7.97
2019-03-22T09:42:57.182Z,6.45
2019-03-22T09:48:00.730Z,6.22
2019-03-22T09:53:04.361Z,6.30
2019-03-22T09:58:09.434Z,6.03
2019-03-22T10:03:12.908Z,6.92
2019-03-22T10:08:16.445Z,5.03
2019-03-22T10:13:19.916Z,5.87
2019-03-22T10:18:23.484Z,7.28
2019-03-22T10:23:27.049Z,4.58
2019-03-22T10:28:30.662Z,5.58
2019-03-22T10:33:34.139Z,3.58
2019-03-22T10:38:37.697Z,4.08
2019-03-22T10:43:41.192Z,5.40
2019-03-22T10:48:44.758Z,4.40
2019-03-22T10:53:48.435Z,4.90
2019-03-22T10:58:52.107Z,5.22
2019-03-22T11:03:55.795Z,4.75
2019-03-22T11:08:59.489Z,3.75
2019-03-22T11:14:03.057Z,3.27
2019-03-22T11:19:06.597Z,4.35
2019-03-22T11:24:10.069Z,3.58
2019-03-22T11:29:13.535Z,4.12
2019-03-22T11:34:16.995Z,3.95
2019-03-22T11:39:20.499Z,4.97
2019-03-22T11:44:24.071Z,5.08
2019-03-22T11:49:27.542Z,4.28
2019-03-22T11:54:31.007Z,3.12
2019-03-22T11:59:34.498Z,4.45
2019-03-22T12:04:38.002Z,5.12
2019-03-22T12:09:41.523Z,3.33
2019-03-22T12:14:45.003Z,3.87
2019-03-22T12:19:48.495Z,2.95
2019-03-22T12:24:52.027Z,3.08
2019-03-22T12:29:55.539Z,4.37
2019-03-22T12:34:59.058Z,4.50
2019-03-22T12:40:02.996Z,4.12
2019-03-22T12:45:09.535Z,3.22
2019-03-22T12:50:13.976Z,4.95
2019-03-22T12:55:17.786Z,4.53
2019-03-22T13:00:23.180Z,5.95
2019-03-22T13:05:26.660Z,3.95
2019-03-22T13:10:30.271Z,4.12
2019-03-22T13:15:33.782Z,3.58
2019-03-22T13:20:37.348Z,4.30
2019-03-22T13:25:40.817Z,4.28
2019-03-22T13:30:44.366Z,3.77
2019-03-22T13:35:47.879Z,3.58
2019-03-22T13:40:51.410Z,3.75
2019-03-22T13:45:54.869Z,3.87
2019-03-22T13:50:58.364Z,4.47
2019-03-22T13:56:01.861Z,3.75
2019-03-22T14:01:05.420Z,3.47
2019-03-22T14:06:08.885Z,4.42
2019-03-22T14:11:12.453Z,4.42
2019-03-22T14:16:15.982Z,3.90
2019-03-22T14:21:19.495Z,3.98
2019-03-22T14:26:23.026Z,3.33
2019-03-22T14:31:26.566Z,3.22
2019-03-22T14:36:30.037Z,3.05
2019-03-22T14:41:33.503Z,3.02
2019-03-22T14:46:37.432Z,3.40
2019-03-22T14:51:40.893Z,3.98
2019-03-22T14:56:44.366Z,4.03
2019-03-22T15:01:47.857Z,3.98
2019-03-22T15:06:51.336Z,3.85
2019-03-22T15:11:54.802Z,3.72
2019-03-22T15:17:09.001Z,4.05
2019-03-22T15:22:15.071Z,4.85
2019-03-22T15:27:36.497Z,5.08
2019-03-22T15:32:47.407Z,3.85
2019-03-22T15:38:08.999Z,3.37
2019-03-22T15:43:12.472Z,3.70
2019-03-22T15:48:16.078Z,4.53
2019-03-22T15:53:19.672Z,3.98
2019-03-22T15:58:23.178Z,3.87
2019-03-22T16:03:26.651Z,4.03
2019-03-22T16:08:30.208Z,4.08
2019-03-22T16:13:33.743Z,3.83
2019-03-22T16:18:37.208Z,3.98
2019-03-22T16:23:40.885Z,3.40
2019-03-22T16:28:44.431Z,4.75
2019-03-22T16:33:54.238Z,3.77
2019-03-22T16:38:53.185Z,4.20
2019-03-22T16:43:56.787Z,3.45
2019-03-22T16:49:00.259Z,3.92
2019-03-22T16:54:03.781Z,3.27
2019-03-22T16:59:07.294Z,3.95
2019-03-22T17:04:10.838Z,5.03
2019-03-22T17:09:14.383Z,4.65
2019-03-22T17:14:17.923Z,5.55
2019-03-22T17:19:21.421Z,5.78
2019-03-22T17:24:24.896Z,9.50
2019-03-22T17:29:28.438Z,7.65
2019-03-22T17:34:31.937Z,3.50
2019-03-22T17:39:38.640Z,5.72
2019-03-22T17:44:42.126Z,6.12
2019-03-22T17:49:48.497Z,5.42
2019-03-22T17:54:51.010Z,3.22
2019-03-22T17:59:54.474Z,4.60
2019-03-22T18:04:57.960Z,4.83
2019-03-22T18:10:01.442Z,5.87
2019-03-22T18:15:08.337Z,6.00
2019-03-22T18:20:14.239Z,6.50
2019-03-22T18:25:17.719Z,7.05
2019-03-22T18:30:21.458Z,6.55
2019-03-22T18:35:25.038Z,6.92
2019-03-22T18:40:28.543Z,8.23
2019-03-22T18:45:32.001Z,9.30
2019-03-22T18:50:35.488Z,7.00
2019-03-22T18:55:38.957Z,7.78
2019-03-22T19:00:42.423Z,10.43
2019-03-22T19:05:45.906Z,7.05
2019-03-22T19:10:49.446Z,11.03
2019-03-22T19:15:53.026Z,13.00
2019-03-22T19:20:57.090Z,11.75
2019-03-22T19:26:00.570Z,17.90
2019-03-22T19:31:04.139Z,8.80
2019-03-22T19:36:07.614Z,10.43
2019-03-22T19:41:11.121Z,9.08
2019-03-22T19:46:14.635Z,10.08
2019-03-22T19:51:18.117Z,9.40
2019-03-22T19:56:21.754Z,8.28
2019-03-22T20:01:25.303Z,11.45
2019-03-22T20:06:28.771Z,10.08
2019-03-22T20:11:32.348Z,10.72
2019-03-22T20:16:36.002Z,11.57
2019-03-22T20:21:40.152Z,9.78
2019-03-22T20:26:43.714Z,8.85
2019-03-22T20:31:47.290Z,13.95
2019-03-22T20:36:50.828Z,11.70
2019-03-22T20:41:54.356Z,10.72
2019-03-22T20:46:57.973Z,11.18
2019-03-22T20:52:01.567Z,11.53
2019-03-22T20:57:05.235Z,14.38
2019-03-22T21:02:08.705Z,15.90
2019-03-22T21:07:12.180Z,14.73
2019-03-22T21:12:15.716Z,15.85
2019-03-22T21:17:19.273Z,17.40
2019-03-22T21:22:22.895Z,17.95
2019-03-22T21:27:26.454Z,16.52
2019-03-22T21:32:30.036Z,18.67
2019-03-22T21:37:33.563Z,18.65
2019-03-22T21:42:37.064Z,18.75
2019-03-22T21:47:40.625Z,20.57
2019-03-22T21:52:45.062Z,17.73
2019-03-22T21:57:48.540Z,21.97
2019-03-22T22:02:52.104Z,19.70
2019-03-22T22:07:55.723Z,21.42
2019-03-22T22:12:59.200Z,23.18
2019-03-22T22:18:03.553Z,22.65
2019-03-22T22:23:07.135Z,21.40
2019-03-22T22:28:10.635Z,22.32
2019-03-22T22:33:14.111Z,19.50
2019-03-22T22:38:17.705Z,23.00
2019-03-22T22:43:21.206Z,20.35
2019-03-22T22:48:24.678Z,24.12
2019-03-22T22:53:28.157Z,24.35
2019-03-22T22:58:31.712Z,23.32
2019-03-22T23:03:35.218Z,24.12
2019-03-22T23:08:38.712Z,23.73
2019-03-22T23:13:42.174Z,24.57
2019-03-22T23:18:45.674Z,24.25
2019-03-22T23:23:49.153Z,26.33
2019-03-22T23:28:52.959Z,25.12
2019-03-22T23:33:56.430Z,25.32
2019-03-22T23:38:59.937Z,22.75
2019-03-22T23:44:03.455Z,23.57
2019-03-22T23:49:06.926Z,27.25
2019-03-22T23:54:10.433Z,24.77
2019-03-22T23:59:13.975Z,25.88
